Time;durP1;ratioP1;P1;durP2;ratioP2;P2;SDS_P1;SDS_P2;PMS_P1;PMS_P2;Temp;Humidity;BMP_temperature;BMP_pressure;BME280_temperature;BME280_humidity;BME280_pressure;Samples;Min_cycle;Max_cycle;Signal;HPM_P1;HPM_P2
2023/12/04 00:01:30;;;;;;;34.92;19.58;;;;;;;;;;5038887;28;20059;-80
2023/12/04 00:03:56;;;;;;;34.40;18.88;;;;;;;;;;5048110;28;20025;-80
2023/12/04 00:06:22;;;;;;;33.47;19.50;;;;;;;;;;5031067;28;20520;-80
2023/12/04 00:08:48;;;;;;;32.63;18.88;;;;;;;;;;5047396;28;20423;-80
2023/12/04 00:11:14;;;;;;;34.13;19.45;;;;;;;;;;5033227;28;20065;-80
2023/12/04 00:13:40;;;;;;;32.00;18.25;;;;;;;;;;5046958;28;20018;-80
2023/12/04 00:16:07;;;;;;;30.75;18.60;;;;;;;;;;5053596;28;20029;-80
2023/12/04 00:18:33;;;;;;;32.67;19.00;;;;;;;;;;5043199;28;20098;-79
2023/12/04 00:20:59;;;;;;;32.50;19.42;;;;;;;;;;5047009;28;20068;-79
2023/12/04 00:23:25;;;;;;;32.92;19.23;;;;;;;;;;5046549;28;20048;-79
2023/12/04 00:25:51;;;;;;;28.48;18.13;;;;;;;;;;5040709;28;20391;-79
2023/12/04 00:28:17;;;;;;;31.35;18.42;;;;;;;;;;5030215;28;20034;-80
2023/12/04 00:30:43;;;;;;;28.90;17.05;;;;;;;;;;5036718;28;20040;-80
2023/12/04 00:33:09;;;;;;;31.40;17.23;;;;;;;;;;5034348;28;20021;-80
2023/12/04 00:35:35;;;;;;;28.52;15.18;;;;;;;;;;5049616;28;20029;-80
2023/12/04 00:38:01;;;;;;;29.52;17.73;;;;;;;;;;5048110;28;20033;-80
2023/12/04 00:40:27;;;;;;;30.92;20.02;;;;;;;;;;5048456;28;20037;-80
2023/12/04 00:42:53;;;;;;;28.80;18.48;;;;;;;;;;5047800;28;20029;-80
2023/12/04 00:45:19;;;;;;;29.65;17.88;;;;;;;;;;5032389;28;20042;-79
2023/12/04 00:47:45;;;;;;;27.92;17.58;;;;;;;;;;5034884;28;20083;-80
2023/12/04 00:50:11;;;;;;;26.30;17.75;;;;;;;;;;5049066;28;20056;-80
2023/12/04 00:52:37;;;;;;;29.48;18.08;;;;;;;;;;5037651;28;20040;-79
2023/12/04 00:55:04;;;;;;;28.15;16.80;;;;;;;;;;5045501;28;20068;-78
2023/12/04 00:57:30;;;;;;;27.42;17.42;;;;;;;;;;5042114;28;20045;-79
2023/12/04 00:59:56;;;;;;;32.10;18.90;;;;;;;;;;5036529;28;20108;-79
2023/12/04 01:02:22;;;;;;;30.25;17.85;;;;;;;;;;5043948;28;20037;-79
2023/12/04 01:04:48;;;;;;;27.20;16.20;;;;;;;;;;5033554;28;20026;-79
2023/12/04 01:07:14;;;;;;;28.52;18.20;;;;;;;;;;5042301;28;20715;-78
2023/12/04 01:09:40;;;;;;;31.92;18.77;;;;;;;;;;5038061;28;20048;-79
2023/12/04 01:12:06;;;;;;;31.38;17.48;;;;;;;;;;5051151;28;20045;-79
2023/12/04 01:14:32;;;;;;;27.08;18.00;;;;;;;;;;5052237;28;20052;-78
2023/12/04 01:16:58;;;;;;;27.15;15.38;;;;;;;;;;5048406;28;20462;-79
2023/12/04 01:19:25;;;;;;;30.17;17.60;;;;;;;;;;5036408;28;20029;-79
2023/12/04 01:21:51;;;;;;;27.05;17.17;;;;;;;;;;5045776;28;20124;-79
2023/12/04 01:24:17;;;;;;;28.17;17.67;;;;;;;;;;5048532;28;20030;-79
2023/12/04 01:26:43;;;;;;;26.77;17.73;;;;;;;;;;5042922;28;20033;-78
2023/12/04 01:29:09;;;;;;;37.13;19.13;;;;;;;;;;5059532;28;20059;-79
2023/12/04 01:31:35;;;;;;;31.23;18.77;;;;;;;;;;5051432;28;20025;-78
2023/12/04 01:34:01;;;;;;;31.05;19.08;;;;;;;;;;5050940;28;20442;-79
2023/12/04 01:36:27;;;;;;;29.80;18.10;;;;;;;;;;5053396;28;20025;-79
2023/12/04 01:38:53;;;;;;;28.15;16.90;;;;;;;;;;5037150;28;20033;-79
2023/12/04 01:41:19;;;;;;;30.13;17.88;;;;;;;;;;5033460;28;20026;-77
2023/12/04 01:43:46;;;;;;;30.90;19.20;;;;;;;;;;5039615;28;20499;-77
2023/12/04 01:46:12;;;;;;;30.48;18.95;;;;;;;;;;5051476;28;20086;-78
2023/12/04 01:48:38;;;;;;;32.80;19.08;;;;;;;;;;5041021;28;20506;-77
2023/12/04 01:51:07;;;;;;;33.03;19.02;;;;;;;;;;5033230;28;20136;-77
2023/12/04 01:53:33;;;;;;;29.65;17.95;;;;;;;;;;5037128;28;20025;-77
2023/12/04 01:55:59;;;;;;;32.55;19.08;;;;;;;;;;5033007;28;20081;-77
2023/12/04 01:58:25;;;;;;;30.90;18.33;;;;;;;;;;5037578;28;20114;-77
2023/12/04 02:00:51;;;;;;;31.10;19.70;;;;;;;;;;5042256;28;20132;-77
2023/12/04 02:03:17;;;;;;;29.48;18.10;;;;;;;;;;5033806;28;20439;-77
2023/12/04 02:05:47;;;;;;;35.80;20.35;;;;;;;;;;5046948;28;20029;-77
2023/12/04 02:08:14;;;;;;;32.67;19.23;;;;;;;;;;5038658;28;20087;-77
2023/12/04 02:10:40;;;;;;;32.03;18.20;;;;;;;;;;5044514;28;20045;-77
2023/12/04 02:13:06;;;;;;;30.60;19.15;;;;;;;;;;5034993;28;20047;-77
2023/12/04 02:15:33;;;;;;;34.40;20.27;;;;;;;;;;5048557;28;20036;-77
2023/12/04 02:17:59;;;;;;;32.40;20.27;;;;;;;;;;5033104;28;20136;-77
2023/12/04 02:20:32;;;;;;;36.55;19.50;;;;;;;;;;5032703;28;20048;-78
2023/12/04 02:22:58;;;;;;;36.42;20.45;;;;;;;;;;5050152;28;20840;-77
2023/12/04 02:25:24;;;;;;;34.55;20.13;;;;;;;;;;5049206;28;20071;-77
2023/12/04 02:27:51;;;;;;;33.92;19.17;;;;;;;;;;5037570;28;20112;-77
2023/12/04 02:30:19;;;;;;;33.30;19.08;;;;;;;;;;5051419;28;20044;-77
2023/12/04 02:32:48;;;;;;;32.28;19.35;;;;;;;;;;5038020;28;20033;-77
2023/12/04 02:35:19;;;;;;;40.33;21.50;;;;;;;;;;5033971;28;20033;-78
2023/12/04 02:37:45;;;;;;;34.05;19.90;;;;;;;;;;5040758;28;20055;-77
2023/12/04 02:40:13;;;;;;;38.58;20.80;;;;;;;;;;5032003;28;20108;-77
2023/12/04 02:42:39;;;;;;;38.47;19.65;;;;;;;;;;5045362;28;20059;-77
2023/12/04 02:45:05;;;;;;;34.97;20.15;;;;;;;;;;5047276;28;20056;-77
2023/12/04 02:47:31;;;;;;;34.60;19.65;;;;;;;;;;5062083;28;20041;-77
2023/12/04 02:49:57;;;;;;;32.50;19.27;;;;;;;;;;5051749;28;20041;-77
2023/12/04 02:52:23;;;;;;;35.20;20.00;;;;;;;;;;5033640;28;20073;-77
2023/12/04 02:54:50;;;;;;;32.20;19.48;;;;;;;;;;5047580;28;20470;-77
2023/12/04 02:57:16;;;;;;;33.58;19.13;;;;;;;;;;5033942;28;20049;-78
2023/12/04 02:59:42;;;;;;;34.78;20.02;;;;;;;;;;5050466;28;20186;-78
2023/12/04 03:02:08;;;;;;;32.17;19.15;;;;;;;;;;5029686;28;20055;-77
2023/12/04 03:04:35;;;;;;;34.17;19.73;;;;;;;;;;5033674;28;20030;-77
2023/12/04 03:07:01;;;;;;;38.47;19.67;;;;;;;;;;5044010;28;20043;-77
2023/12/04 03:09:27;;;;;;;37.10;20.00;;;;;;;;;;5030991;28;20065;-77
2023/12/04 03:11:53;;;;;;;35.60;20.38;;;;;;;;;;5045068;28;20029;-77
2023/12/04 03:14:19;;;;;;;36.33;19.83;;;;;;;;;;5046397;28;20091;-77
2023/12/04 03:16:45;;;;;;;32.42;19.13;;;;;;;;;;5034636;28;20036;-77
2023/12/04 03:19:12;;;;;;;37.25;21.35;;;;;;;;;;5021237;28;20033;-77
2023/12/04 03:21:38;;;;;;;36.53;20.17;;;;;;;;;;5044049;28;20486;-77
2023/12/04 03:24:04;;;;;;;37.40;19.67;;;;;;;;;;5044717;28;20532;-77
2023/12/04 03:26:30;;;;;;;37.10;21.58;;;;;;;;;;5040773;28;20099;-77
2023/12/04 03:28:56;;;;;;;34.60;20.70;;;;;;;;;;5049321;28;20056;-77
2023/12/04 03:31:23;;;;;;;34.50;19.73;;;;;;;;;;5047436;28;20116;-77
2023/12/04 03:33:49;;;;;;;36.92;19.50;;;;;;;;;;5044173;28;20029;-77
2023/12/04 03:36:15;;;;;;;34.42;19.40;;;;;;;;;;5042015;28;20045;-77
2023/12/04 03:38:41;;;;;;;36.55;19.77;;;;;;;;;;5031365;28;20048;-78
2023/12/04 03:41:16;;;;;;;34.70;18.80;;;;;;;;;;5043715;28;20037;-77
2023/12/04 03:43:42;;;;;;;32.13;18.98;;;;;;;;;;5037695;28;20045;-78
2023/12/04 03:46:09;;;;;;;35.05;19.38;;;;;;;;;;5044668;28;20146;-78
2023/12/04 03:48:35;;;;;;;34.88;19.80;;;;;;;;;;5040810;28;20032;-77
2023/12/04 03:51:01;;;;;;;31.48;19.13;;;;;;;;;;5043544;28;20041;-77
2023/12/04 03:53:27;;;;;;;30.88;18.05;;;;;;;;;;5037789;28;20061;-77
2023/12/04 03:55:53;;;;;;;32.97;19.02;;;;;;;;;;5031486;28;20053;-77
2023/12/04 03:58:19;;;;;;;33.53;18.50;;;;;;;;;;5043712;28;20024;-77
2023/12/04 04:00:46;;;;;;;34.03;18.38;;;;;;;;;;5036143;28;20107;-77
2023/12/04 04:03:12;;;;;;;33.88;19.23;;;;;;;;;;5037880;28;20033;-77
2023/12/04 04:05:38;;;;;;;34.03;17.67;;;;;;;;;;5033996;28;20142;-77
2023/12/04 04:08:06;;;;;;;30.23;17.25;;;;;;;;;;5044999;28;20049;-77
2023/12/04 04:10:32;;;;;;;35.13;18.35;;;;;;;;;;5030677;28;20040;-77
2023/12/04 04:12:58;;;;;;;31.80;17.60;;;;;;;;;;5037787;28;21783;-77
2023/12/04 04:15:24;;;;;;;28.58;17.13;;;;;;;;;;5040591;28;20040;-77
2023/12/04 04:17:50;;;;;;;29.13;16.02;;;;;;;;;;5049756;28;20095;-78
2023/12/04 04:20:16;;;;;;;30.00;16.95;;;;;;;;;;5040270;28;20039;-78
2023/12/04 04:22:42;;;;;;;33.10;18.58;;;;;;;;;;5050131;28;20040;-78
2023/12/04 04:25:09;;;;;;;31.52;17.88;;;;;;;;;;5032554;28;20060;-78
2023/12/04 04:27:35;;;;;;;33.50;17.63;;;;;;;;;;5031194;28;20139;-77
2023/12/04 04:30:01;;;;;;;29.95;17.45;;;;;;;;;;5040800;28;20044;-77
2023/12/04 04:32:27;;;;;;;31.20;16.48;;;;;;;;;;5035174;28;20056;-77
2023/12/04 04:34:53;;;;;;;28.90;16.95;;;;;;;;;;5043443;28;20068;-78
2023/12/04 04:37:22;;;;;;;28.95;16.60;;;;;;;;;;5046884;28;20059;-77
2023/12/04 04:39:48;;;;;;;29.05;16.48;;;;;;;;;;5039714;28;20082;-77
2023/12/04 04:42:15;;;;;;;29.10;16.48;;;;;;;;;;5031398;28;20045;-78
2023/12/04 04:44:41;;;;;;;29.58;16.27;;;;;;;;;;5033090;28;20091;-77
2023/12/04 04:47:07;;;;;;;31.08;17.58;;;;;;;;;;5044323;28;20021;-78
2023/12/04 04:49:33;;;;;;;27.35;14.38;;;;;;;;;;5055359;28;20041;-78
2023/12/04 04:51:59;;;;;;;28.52;15.60;;;;;;;;;;5046203;28;20040;-78
2023/12/04 04:54:25;;;;;;;29.00;16.10;;;;;;;;;;5038857;28;20155;-78
2023/12/04 04:56:51;;;;;;;26.15;14.93;;;;;;;;;;5029799;28;20042;-78
2023/12/04 04:59:17;;;;;;;30.13;15.88;;;;;;;;;;5037498;28;20513;-78
2023/12/04 05:01:43;;;;;;;29.45;16.58;;;;;;;;;;5022867;28;20116;-77
2023/12/04 05:04:09;;;;;;;28.77;15.43;;;;;;;;;;5044746;28;20029;-71
2023/12/04 05:06:36;;;;;;;29.20;15.60;;;;;;;;;;5047041;28;20067;-77
2023/12/04 05:09:02;;;;;;;29.95;15.27;;;;;;;;;;5042161;28;20036;-77
2023/12/04 05:11:28;;;;;;;33.53;17.05;;;;;;;;;;5045968;28;20059;-77
2023/12/04 05:13:54;;;;;;;28.15;15.80;;;;;;;;;;5044181;28;20096;-77
2023/12/04 05:16:20;;;;;;;28.17;15.70;;;;;;;;;;5043419;28;20048;-77
2023/12/04 05:18:46;;;;;;;25.73;15.38;;;;;;;;;;5023946;28;20039;-77
2023/12/04 05:21:13;;;;;;;26.65;15.43;;;;;;;;;;5043639;28;20031;-77
2023/12/04 05:23:39;;;;;;;26.88;14.95;;;;;;;;;;5040649;28;20079;-77
2023/12/04 05:26:06;;;;;;;28.60;15.27;;;;;;;;;;5036654;28;20485;-80
2023/12/04 05:28:32;;;;;;;28.85;16.77;;;;;;;;;;5036585;28;20044;-78
2023/12/04 05:30:58;;;;;;;33.35;17.55;;;;;;;;;;5039005;28;20175;-75
2023/12/04 05:33:24;;;;;;;27.10;16.50;;;;;;;;;;5025653;28;20136;-76
2023/12/04 05:35:54;;;;;;;29.55;16.65;;;;;;;;;;5038062;28;20053;-78
2023/12/04 05:38:20;;;;;;;24.70;14.85;;;;;;;;;;5041048;28;20136;-78
2023/12/04 05:40:46;;;;;;;24.42;14.55;;;;;;;;;;5048060;28;20048;-77
2023/12/04 05:43:12;;;;;;;23.80;14.50;;;;;;;;;;5049649;28;20048;-77
2023/12/04 05:45:39;;;;;;;24.65;14.40;;;;;;;;;;5047308;28;20041;-77
2023/12/04 05:48:06;;;;;;;27.48;14.95;;;;;;;;;;5032135;28;20031;-77
2023/12/04 05:50:32;;;;;;;26.05;14.57;;;;;;;;;;5050645;28;20039;-78
2023/12/04 05:52:58;;;;;;;28.95;15.90;;;;;;;;;;5052960;28;20053;-78
2023/12/04 05:55:24;;;;;;;26.88;15.13;;;;;;;;;;5051637;28;20509;-77
2023/12/04 05:57:51;;;;;;;23.83;14.38;;;;;;;;;;5042481;28;20029;-77
2023/12/04 06:00:17;;;;;;;27.55;15.25;;;;;;;;;;5028569;28;20025;-78
2023/12/04 06:02:44;;;;;;;31.73;17.27;;;;;;;;;;5051299;28;20044;-75
2023/12/04 06:05:10;;;;;;;30.67;15.88;;;;;;;;;;5053379;28;20033;-76
2023/12/04 06:07:36;;;;;;;34.95;20.02;;;;;;;;;;5042244;28;20030;-79
2023/12/04 06:10:06;;;;;;;27.35;15.55;;;;;;;;;;5049789;28;20055;-76
2023/12/04 06:12:32;;;;;;;26.90;15.10;;;;;;;;;;5043617;28;20025;-78
2023/12/04 06:14:58;;;;;;;24.13;15.43;;;;;;;;;;5031598;28;20030;-77
2023/12/04 06:17:24;;;;;;;23.75;14.38;;;;;;;;;;5051779;28;20063;-76
2023/12/04 06:19:50;;;;;;;24.85;14.48;;;;;;;;;;5051359;28;20032;-77
2023/12/04 06:22:19;;;;;;;25.85;15.60;;;;;;;;;;5039824;28;20032;-77
2023/12/04 06:24:46;;;;;;;26.35;14.65;;;;;;;;;;5052103;28;20090;-77
2023/12/04 06:27:15;;;;;;;21.20;13.25;;;;;;;;;;5050339;28;20126;-80
2023/12/04 06:29:41;;;;;;;25.90;14.82;;;;;;;;;;5044823;28;20044;-77
2023/12/04 06:32:08;;;;;;;32.13;17.85;;;;;;;;;;5056250;28;20116;-78
2023/12/04 06:34:34;;;;;;;24.13;13.77;;;;;;;;;;5057502;28;20029;-77
2023/12/04 06:37:02;;;;;;;28.25;14.45;;;;;;;;;;5051875;28;20045;-77
2023/12/04 06:39:31;;;;;;;24.88;14.52;;;;;;;;;;5051659;28;20042;-77
2023/12/04 06:41:57;;;;;;;20.88;13.30;;;;;;;;;;5037717;28;20029;-77
2023/12/04 06:44:24;;;;;;;20.83;13.15;;;;;;;;;;5047805;28;20167;-77
2023/12/04 06:46:51;;;;;;;22.58;14.10;;;;;;;;;;5045572;28;20041;-77
2023/12/04 06:49:18;;;;;;;20.23;12.95;;;;;;;;;;5042869;28;20494;-76
2023/12/04 06:51:44;;;;;;;20.33;12.38;;;;;;;;;;5041922;28;20057;-77
2023/12/04 06:54:11;;;;;;;21.70;13.15;;;;;;;;;;5041828;28;20496;-76
2023/12/04 06:56:37;;;;;;;23.27;13.68;;;;;;;;;;5040595;28;20138;-76
2023/12/04 06:59:04;;;;;;;23.27;14.32;;;;;;;;;;5043410;28;20037;-83
2023/12/04 07:01:30;;;;;;;22.08;12.45;;;;;;;;;;5036330;28;20045;-75
2023/12/04 07:03:56;;;;;;;21.75;13.48;;;;;;;;;;5029005;28;20025;-75
2023/12/04 07:06:22;;;;;;;22.08;13.35;;;;;;;;;;5040410;28;20112;-75
2023/12/04 07:08:48;;;;;;;20.55;12.77;;;;;;;;;;5045867;28;20474;-75
2023/12/04 07:11:16;;;;;;;24.85;12.25;;;;;;;;;;5041326;28;20037;-73
2023/12/04 07:13:42;;;;;;;16.58;11.52;;;;;;;;;;5042848;28;20067;-74
2023/12/04 07:16:08;;;;;;;17.55;11.27;;;;;;;;;;5040223;28;20107;-75
2023/12/04 07:18:34;;;;;;;20.65;11.70;;;;;;;;;;5040118;28;20048;-72
2023/12/04 07:21:00;;;;;;;21.25;11.32;;;;;;;;;;5045564;28;20041;-72
2023/12/04 07:23:27;;;;;;;64.72;27.83;;;;;;;;;;5035779;28;20025;-73
2023/12/04 07:25:53;;;;;;;34.45;18.42;;;;;;;;;;5028640;28;20041;-77
2023/12/04 07:28:19;;;;;;;23.42;13.48;;;;;;;;;;5046605;28;20067;-69
2023/12/04 07:30:46;;;;;;;21.52;11.65;;;;;;;;;;5047158;28;20052;-72
2023/12/04 07:33:12;;;;;;;19.45;11.30;;;;;;;;;;5046555;28;20124;-77
2023/12/04 07:35:38;;;;;;;27.90;11.73;;;;;;;;;;5044643;28;20300;-81
2023/12/04 07:38:04;;;;;;;21.40;10.77;;;;;;;;;;5042404;28;20104;-73
2023/12/04 07:40:31;;;;;;;17.88;11.57;;;;;;;;;;5039868;28;20107;-73
2023/12/04 07:42:57;;;;;;;74.20;33.40;;;;;;;;;;5041823;28;20025;-74
2023/12/04 07:45:23;;;;;;;29.92;13.40;;;;;;;;;;5041242;28;20040;-76
2023/12/04 07:47:50;;;;;;;35.42;20.65;;;;;;;;;;5047859;28;20382;-76
2023/12/04 07:50:16;;;;;;;17.27;10.77;;;;;;;;;;5039157;28;20029;-79
2023/12/04 07:52:43;;;;;;;16.25;10.30;;;;;;;;;;5041159;28;20482;-75
2023/12/04 07:55:09;;;;;;;18.65;10.30;;;;;;;;;;5046020;28;20044;-75
2023/12/04 07:57:35;;;;;;;17.77;10.70;;;;;;;;;;5042749;28;20052;-71
2023/12/04 08:00:01;;;;;;;21.27;9.65;;;;;;;;;;5040480;28;20037;-72
2023/12/04 08:02:27;;;;;;;15.85;9.90;;;;;;;;;;5037368;28;20086;-74
2023/12/04 08:04:54;;;;;;;19.73;9.50;;;;;;;;;;5040519;28;20033;-71
2023/12/04 08:07:20;;;;;;;13.50;8.32;;;;;;;;;;5045742;28;20131;-74
2023/12/04 08:09:46;;;;;;;15.45;10.32;;;;;;;;;;5043531;28;20041;-70
2023/12/04 08:12:12;;;;;;;13.68;9.00;;;;;;;;;;5042490;28;20068;-71
2023/12/04 08:14:38;;;;;;;12.25;8.63;;;;;;;;;;5025563;28;20025;-71
2023/12/04 08:17:05;;;;;;;34.67;11.85;;;;;;;;;;5026291;28;20034;-76
2023/12/04 08:19:31;;;;;;;35.88;12.85;;;;;;;;;;5036744;28;20060;-70
2023/12/04 08:21:57;;;;;;;68.43;12.32;;;;;;;;;;5044868;28;20029;-76
2023/12/04 08:24:23;;;;;;;18.10;8.73;;;;;;;;;;5033052;28;20037;-72
2023/12/04 08:26:50;;;;;;;32.70;9.82;;;;;;;;;;5031037;28;20040;-76
2023/12/04 08:29:17;;;;;;;20.73;11.90;;;;;;;;;;5026664;28;20033;-75
2023/12/04 08:31:43;;;;;;;81.40;37.17;;;;;;;;;;5046858;28;20042;-71
2023/12/04 08:34:09;;;;;;;13.23;8.15;;;;;;;;;;5046265;28;20017;-69
2023/12/04 08:36:35;;;;;;;25.27;9.95;;;;;;;;;;5041484;28;20495;-68
2023/12/04 08:39:01;;;;;;;13.85;8.38;;;;;;;;;;5041263;28;20055;-70
2023/12/04 08:41:28;;;;;;;12.32;7.45;;;;;;;;;;5035402;28;20029;-69
2023/12/04 08:43:55;;;;;;;46.58;8.77;;;;;;;;;;5038961;28;20395;-69
2023/12/04 08:46:21;;;;;;;12.50;7.90;;;;;;;;;;5039563;28;20040;-69
2023/12/04 08:48:47;;;;;;;11.55;8.27;;;;;;;;;;5041200;28;21226;-70
2023/12/04 08:51:17;;;;;;;12.77;7.93;;;;;;;;;;5048019;28;20044;-70
2023/12/04 08:53:43;;;;;;;11.20;7.55;;;;;;;;;;5038249;28;20038;-70
2023/12/04 08:56:09;;;;;;;11.10;7.95;;;;;;;;;;5049582;28;20121;-70
2023/12/04 08:58:35;;;;;;;9.40;6.68;;;;;;;;;;5044904;28;20053;-70
2023/12/04 09:01:01;;;;;;;12.68;6.90;;;;;;;;;;5037454;28;20086;-69
2023/12/04 09:03:27;;;;;;;11.13;6.78;;;;;;;;;;5045666;28;20036;-69
2023/12/04 09:05:55;;;;;;;9.18;6.63;;;;;;;;;;5032614;28;20091;-69
2023/12/04 09:08:21;;;;;;;9.35;6.00;;;;;;;;;;5044739;28;20024;-69
2023/12/04 09:10:48;;;;;;;10.30;6.47;;;;;;;;;;5039614;28;20040;-70
2023/12/04 09:13:14;;;;;;;9.32;6.22;;;;;;;;;;5040606;28;20033;-70
2023/12/04 09:15:40;;;;;;;8.60;6.57;;;;;;;;;;5042884;28;20037;-70
2023/12/04 09:18:06;;;;;;;9.38;6.18;;;;;;;;;;5051644;28;20478;-71
2023/12/04 09:20:32;;;;;;;11.40;6.97;;;;;;;;;;5033951;28;20056;-70
2023/12/04 09:22:58;;;;;;;11.20;6.93;;;;;;;;;;5044250;28;20033;-72
2023/12/04 09:25:25;;;;;;;7.82;5.93;;;;;;;;;;5014381;28;20041;-71
2023/12/04 09:27:51;;;;;;;8.95;5.82;;;;;;;;;;5016522;28;20041;-70
2023/12/04 09:30:17;;;;;;;10.38;7.15;;;;;;;;;;5042452;28;20071;-71
2023/12/04 09:32:43;;;;;;;13.77;6.60;;;;;;;;;;5052576;28;20025;-70
2023/12/04 09:35:09;;;;;;;19.75;9.32;;;;;;;;;;5036542;28;20118;-73
2023/12/04 09:37:35;;;;;;;17.10;9.07;;;;;;;;;;5049199;28;20121;-69
2023/12/04 09:40:02;;;;;;;13.05;8.43;;;;;;;;;;5049129;28;20037;-70
2023/12/04 09:42:29;;;;;;;12.50;6.57;;;;;;;;;;5037229;28;20117;-70
2023/12/04 09:44:55;;;;;;;10.00;6.28;;;;;;;;;;5038760;28;20502;-72
2023/12/04 09:47:22;;;;;;;9.70;6.30;;;;;;;;;;5041963;28;20406;-74
2023/12/04 09:49:49;;;;;;;8.63;5.45;;;;;;;;;;5038108;28;20038;-71
2023/12/04 09:52:15;;;;;;;18.08;6.20;;;;;;;;;;5034613;28;20479;-74
2023/12/04 09:54:42;;;;;;;15.32;6.07;;;;;;;;;;5047575;28;20048;-71
2023/12/04 09:57:09;;;;;;;17.05;6.82;;;;;;;;;;5041281;28;20049;-80
2023/12/04 09:59:36;;;;;;;10.73;6.20;;;;;;;;;;5039538;28;20017;-73
2023/12/04 10:02:03;;;;;;;11.10;5.70;;;;;;;;;;5040587;28;20032;-79
2023/12/04 10:04:29;;;;;;;10.13;6.55;;;;;;;;;;5050162;28;20040;-80
2023/12/04 10:06:55;;;;;;;12.15;6.30;;;;;;;;;;5046164;28;20040;-83
2023/12/04 10:09:22;;;;;;;11.35;7.03;;;;;;;;;;5047691;28;20112;-75
2023/12/04 10:11:49;;;;;;;9.15;5.93;;;;;;;;;;5036302;28;20071;-79
2023/12/04 10:14:19;;;;;;;8.80;6.05;;;;;;;;;;5038497;28;20124;-78
2023/12/04 10:16:45;;;;;;;13.43;5.50;;;;;;;;;;5044570;28;20165;-75
2023/12/04 10:19:16;;;;;;;17.00;8.73;;;;;;;;;;5048043;28;20025;-74
2023/12/04 10:21:42;;;;;;;20.73;11.07;;;;;;;;;;5040509;28;20029;-76
2023/12/04 10:24:08;;;;;;;8.65;5.95;;;;;;;;;;5044110;28;20102;-74
2023/12/04 10:26:34;;;;;;;8.75;5.00;;;;;;;;;;5047448;28;20040;-77
2023/12/04 10:29:02;;;;;;;7.45;5.57;;;;;;;;;;5033830;28;20037;-83
2023/12/04 10:31:33;;;;;;;9.07;5.53;;;;;;;;;;5041826;28;20080;-82
2023/12/04 10:33:59;;;;;;;8.55;5.25;;;;;;;;;;5049201;28;20021;-79
2023/12/04 10:36:25;;;;;;;10.23;7.13;;;;;;;;;;5043954;28;20029;-79
2023/12/04 10:39:00;;;;;;;8.63;6.13;;;;;;;;;;5042756;28;20486;-74
2023/12/04 10:41:27;;;;;;;11.75;5.95;;;;;;;;;;5031751;28;20118;-80
2023/12/04 10:43:53;;;;;;;8.93;6.00;;;;;;;;;;5045182;28;20037;-82
2023/12/04 10:46:20;;;;;;;6.78;5.35;;;;;;;;;;5043539;28;20044;-80
2023/12/04 10:48:47;;;;;;;7.45;5.32;;;;;;;;;;5041871;28;20104;-81
2023/12/04 10:51:14;;;;;;;10.70;6.05;;;;;;;;;;5043215;28;20042;-80
2023/12/04 10:53:42;;;;;;;9.45;5.90;;;;;;;;;;5041690;28;20047;-73
2023/12/04 10:56:10;;;;;;;7.50;5.32;;;;;;;;;;5046139;28;20039;-76
2023/12/04 10:58:38;;;;;;;10.07;6.13;;;;;;;;;;5045791;28;20116;-77
2023/12/04 11:01:08;;;;;;;9.63;5.93;;;;;;;;;;5040900;28;20040;-75
2023/12/04 11:03:42;;;;;;;11.13;6.25;;;;;;;;;;5043803;28;20046;-72
2023/12/04 11:06:10;;;;;;;9.07;6.32;;;;;;;;;;5043791;28;20091;-71
2023/12/04 11:08:36;;;;;;;9.35;6.03;;;;;;;;;;5039466;28;20061;-71
2023/12/04 11:11:06;;;;;;;8.52;5.30;;;;;;;;;;5045014;28;20044;-73
2023/12/04 11:13:33;;;;;;;10.95;6.78;;;;;;;;;;5043124;28;20052;-78
2023/12/04 11:16:03;;;;;;;30.75;16.20;;;;;;;;;;5044961;28;20035;-79
2023/12/04 11:18:32;;;;;;;27.48;15.18;;;;;;;;;;5039355;28;20033;-76
2023/12/04 11:21:00;;;;;;;13.75;8.10;;;;;;;;;;5041531;28;20036;-76
2023/12/04 11:23:26;;;;;;;11.07;7.57;;;;;;;;;;5045186;28;20033;-72
2023/12/04 11:25:53;;;;;;;9.65;6.93;;;;;;;;;;5044950;28;20074;-71
2023/12/04 11:28:20;;;;;;;13.70;7.43;;;;;;;;;;5041795;28;20018;-69
2023/12/04 11:30:46;;;;;;;10.75;6.88;;;;;;;;;;5042641;28;20040;-70
2023/12/04 11:33:12;;;;;;;10.18;6.10;;;;;;;;;;5049931;28;20029;-71
2023/12/04 11:35:39;;;;;;;9.32;6.40;;;;;;;;;;5045185;28;20044;-73
2023/12/04 11:38:09;;;;;;;17.05;8.23;;;;;;;;;;5048104;28;20033;-72
2023/12/04 11:40:40;;;;;;;8.38;5.72;;;;;;;;;;5042262;28;20109;-73
2023/12/04 11:43:23;;;;;;;10.00;6.60;;;;;;;;;;5047381;28;20037;-71
2023/12/04 11:45:49;;;;;;;9.43;6.15;;;;;;;;;;5039021;28;20037;-72
2023/12/04 11:48:15;;;;;;;8.07;5.80;;;;;;;;;;5039994;28;20506;-71
2023/12/04 11:50:44;;;;;;;9.30;6.22;;;;;;;;;;5046439;28;20041;-71
2023/12/04 11:53:13;;;;;;;34.00;17.33;;;;;;;;;;5047214;28;20037;-75
2023/12/04 11:55:41;;;;;;;15.27;9.30;;;;;;;;;;5037220;28;20032;-71
2023/12/04 11:58:09;;;;;;;19.88;11.30;;;;;;;;;;5036288;28;20111;-74
2023/12/04 12:00:37;;;;;;;15.02;8.38;;;;;;;;;;5021690;28;20029;-70
2023/12/04 12:03:06;;;;;;;13.55;6.45;;;;;;;;;;5045881;28;20120;-73
2023/12/04 12:05:33;;;;;;;11.15;6.03;;;;;;;;;;5039857;28;20036;-73
2023/12/04 12:08:00;;;;;;;8.27;5.80;;;;;;;;;;5044262;28;20037;-73
2023/12/04 12:10:27;;;;;;;9.52;6.30;;;;;;;;;;5041197;28;20028;-70
2023/12/04 12:12:53;;;;;;;12.48;6.72;;;;;;;;;;5047505;28;20039;-69
2023/12/04 12:15:20;;;;;;;13.20;7.25;;;;;;;;;;5055289;28;20044;-73
2023/12/04 12:17:46;;;;;;;14.60;6.90;;;;;;;;;;5035445;28;20037;-80
2023/12/04 12:20:12;;;;;;;9.90;6.30;;;;;;;;;;5030781;28;20029;-75
2023/12/04 12:22:43;;;;;;;8.55;5.22;;;;;;;;;;5035357;28;20124;-76
2023/12/04 12:25:11;;;;;;;9.35;6.45;;;;;;;;;;5047953;28;20141;-73
2023/12/04 12:27:37;;;;;;;10.60;7.20;;;;;;;;;;5021486;28;20124;-73
2023/12/04 12:30:04;;;;;;;9.82;6.28;;;;;;;;;;5026960;28;20136;-74
2023/12/04 12:32:33;;;;;;;16.60;9.15;;;;;;;;;;5038980;28;20041;-70
2023/12/04 12:34:59;;;;;;;15.25;6.80;;;;;;;;;;5063280;28;20474;-73
2023/12/04 12:37:25;;;;;;;9.50;5.75;;;;;;;;;;5035457;28;20049;-72
2023/12/04 12:39:52;;;;;;;8.20;6.28;;;;;;;;;;5043301;28;20502;-72
2023/12/04 12:42:22;;;;;;;13.18;6.35;;;;;;;;;;5047889;28;20025;-74
2023/12/04 12:44:48;;;;;;;9.23;5.93;;;;;;;;;;5044805;28;20029;-74
2023/12/04 12:47:17;;;;;;;10.45;5.88;;;;;;;;;;5048415;28;20049;-73
2023/12/04 12:49:44;;;;;;;10.25;6.15;;;;;;;;;;5038817;28;20041;-74
2023/12/04 12:52:10;;;;;;;9.65;6.60;;;;;;;;;;5040103;28;20090;-76
2023/12/04 12:54:41;;;;;;;9.10;5.75;;;;;;;;;;5042065;28;20415;-79
2023/12/04 12:57:07;;;;;;;8.68;6.03;;;;;;;;;;5045452;28;20116;-78
2023/12/04 12:59:34;;;;;;;16.10;7.10;;;;;;;;;;5038198;28;20045;-77
2023/12/04 13:02:00;;;;;;;13.02;8.43;;;;;;;;;;5045730;28;20697;-76
2023/12/04 13:04:27;;;;;;;9.93;6.55;;;;;;;;;;5043256;28;20100;-87
2023/12/04 13:06:53;;;;;;;16.35;7.13;;;;;;;;;;5052963;28;20085;-79
2023/12/04 13:09:21;;;;;;;10.35;6.00;;;;;;;;;;5048546;28;20040;-77
2023/12/04 13:11:47;;;;;;;9.35;6.85;;;;;;;;;;5053315;28;20044;-73
2023/12/04 13:14:13;;;;;;;9.23;6.03;;;;;;;;;;5043005;28;20039;-82
2023/12/04 13:16:40;;;;;;;9.02;6.10;;;;;;;;;;5030678;28;20124;-77
2023/12/04 13:19:06;;;;;;;9.75;6.40;;;;;;;;;;5039838;28;20179;-76
2023/12/04 13:21:32;;;;;;;11.50;5.85;;;;;;;;;;5043529;28;20048;-74
2023/12/04 13:23:59;;;;;;;10.50;6.20;;;;;;;;;;5049199;28;20051;-74
2023/12/04 13:26:25;;;;;;;9.77;5.53;;;;;;;;;;5048590;28;20055;-74
2023/12/04 13:28:51;;;;;;;9.38;5.82;;;;;;;;;;5038170;28;20037;-76
2023/12/04 13:31:17;;;;;;;17.77;5.68;;;;;;;;;;5046692;28;20045;-81
2023/12/04 13:33:46;;;;;;;8.43;6.15;;;;;;;;;;5049657;28;20041;-75
2023/12/04 13:36:12;;;;;;;9.25;6.00;;;;;;;;;;5045279;28;20036;-79
2023/12/04 13:38:38;;;;;;;9.60;5.85;;;;;;;;;;5045751;28;20042;-78
2023/12/04 13:43:51;;;;;;;12.75;6.40;;;;;;;;;;5034599;28;20036;-75
2023/12/04 13:46:18;;;;;;;8.73;5.60;;;;;;;;;;5042632;28;20037;-78
2023/12/04 13:48:44;;;;;;;9.38;6.25;;;;;;;;;;5041411;28;20048;-75
2023/12/04 13:51:10;;;;;;;10.88;6.28;;;;;;;;;;5044200;28;20041;-80
2023/12/04 13:53:39;;;;;;;49.97;25.60;;;;;;;;;;5033301;28;20036;-78
2023/12/04 13:58:55;;;;;;;18.77;11.20;;;;;;;;;;5051961;28;20049;-75
2023/12/04 14:01:24;;;;;;;11.05;6.88;;;;;;;;;;5040449;28;20116;-78
2023/12/04 14:03:50;;;;;;;9.07;5.93;;;;;;;;;;5043199;28;20498;-75
2023/12/04 14:06:16;;;;;;;9.93;6.00;;;;;;;;;;5041327;28;20084;-78
2023/12/04 14:08:42;;;;;;;11.07;5.88;;;;;;;;;;5041958;28;20505;-75
2023/12/04 14:11:11;;;;;;;11.25;6.65;;;;;;;;;;5049962;28;20033;-77
2023/12/04 14:13:38;;;;;;;12.68;8.48;;;;;;;;;;5047498;28;20430;-73
2023/12/04 14:16:06;;;;;;;26.40;15.63;;;;;;;;;;5049809;28;20449;-76
2023/12/04 14:18:35;;;;;;;12.77;7.32;;;;;;;;;;5042889;28;20063;-82
2023/12/04 14:21:01;;;;;;;11.65;5.93;;;;;;;;;;5050345;28;20140;-76
2023/12/04 14:23:28;;;;;;;8.77;5.60;;;;;;;;;;5048009;28;20679;-77
2023/12/04 14:25:54;;;;;;;8.52;6.03;;;;;;;;;;5051559;28;20025;-74